Time;durP1;ratioP1;P1;durP2;ratioP2;P2;SDS_P1;SDS_P2;PMS_P1;PMS_P2;Temp;Humidity;BMP_temperature;BMP_pressure;BME280_temperature;BME280_humidity;BME280_pressure;Samples;Min_cycle;Max_cycle;Signal;HPM_P1;HPM_P2
2023/11/04 00:01:12;;;;;;;6.20;2.23;;;8.60;99.90;;;;;;4919585;29;20490;-62
2023/11/04 00:03:52;;;;;;;5.90;2.70;;;8.60;99.90;;;;;;4912657;28;20501;-62
2023/11/04 00:06:20;;;;;;;4.10;2.37;;;8.60;99.90;;;;;;4916691;29;20571;-62
2023/11/04 00:08:48;;;;;;;4.83;2.07;;;8.60;99.90;;;;;;4913865;29;20838;-62
2023/11/04 00:11:18;;;;;;;3.40;2.40;;;8.60;99.90;;;;;;4918485;29;20970;-62
2023/11/04 00:13:46;;;;;;;4.10;2.90;;;8.60;99.90;;;;;;4916410;28;20564;-62
2023/11/04 00:16:14;;;;;;;3.47;2.10;;;8.60;99.90;;;;;;4912228;29;20476;-62
2023/11/04 00:18:42;;;;;;;3.63;2.60;;;8.60;99.90;;;;;;4913672;29;20487;-62
2023/11/04 00:21:12;;;;;;;3.10;2.70;;;8.70;99.90;;;;;;4916271;29;20534;-62
2023/11/04 00:23:41;;;;;;;3.63;2.17;;;8.70;99.90;;;;;;4912944;28;20540;-62
2023/11/04 00:26:09;;;;;;;4.63;2.10;;;8.60;99.90;;;;;;4916394;29;20479;-62
2023/11/04 00:28:37;;;;;;;4.80;2.73;;;8.60;99.90;;;;;;4916503;29;20487;-62
2023/11/04 00:31:07;;;;;;;7.60;2.70;;;8.60;99.90;;;;;;4919105;29;20580;-62
2023/11/04 00:33:35;;;;;;;5.60;2.77;;;8.60;99.90;;;;;;4916693;28;20503;-62
2023/11/04 00:36:04;;;;;;;3.57;2.20;;;8.60;99.90;;;;;;4914329;29;20478;-62
2023/11/04 00:38:34;;;;;;;7.17;3.20;;;8.60;99.90;;;;;;4915941;29;20488;-61
2023/11/04 00:41:02;;;;;;;3.80;2.33;;;8.60;99.90;;;;;;4918127;29;20539;-62
2023/11/04 00:43:33;;;;;;;3.87;2.53;;;8.60;99.90;;;;;;4914679;28;20574;-62
2023/11/04 00:46:01;;;;;;;3.40;2.60;;;8.60;99.90;;;;;;4917208;29;20499;-62
2023/11/04 00:48:29;;;;;;;4.93;2.27;;;8.50;99.90;;;;;;4915725;29;20511;-62
2023/11/04 00:50:57;;;;;;;4.47;2.27;;;8.50;99.90;;;;;;4917109;29;20495;-62
2023/11/04 00:53:25;;;;;;;4.60;2.20;;;8.40;99.90;;;;;;4915433;28;20579;-62
2023/11/04 00:55:55;;;;;;;3.40;2.67;;;8.40;99.90;;;;;;4917331;29;20591;-62
2023/11/04 00:58:22;;;;;;;4.57;2.80;;;8.40;99.90;;;;;;4919658;29;20563;-62
2023/11/04 01:00:51;;;;;;;4.43;2.50;;;8.40;99.90;;;;;;4920229;29;20480;-62
2023/11/04 01:03:19;;;;;;;4.27;2.60;;;8.30;99.90;;;;;;4918254;28;21007;-62
2023/11/04 01:05:48;;;;;;;3.73;2.30;;;8.30;99.90;;;;;;4917179;29;20508;-62
2023/11/04 01:08:16;;;;;;;3.17;2.60;;;8.30;99.90;;;;;;4915586;29;20473;-62
2023/11/04 01:10:44;;;;;;;4.10;2.60;;;8.30;99.90;;;;;;4918615;29;20531;-61
2023/11/04 01:13:14;;;;;;;6.60;3.10;;;8.30;99.90;;;;;;4915982;28;20550;-61
2023/11/04 01:15:42;;;;;;;5.50;2.60;;;8.20;99.90;;;;;;4919062;29;20473;-61
2023/11/04 01:18:10;;;;;;;4.63;2.87;;;8.20;99.90;;;;;;4919961;29;20571;-61
2023/11/04 01:20:38;;;;;;;3.80;2.50;;;8.20;99.90;;;;;;4921138;29;20574;-61
2023/11/04 01:23:06;;;;;;;5.00;3.20;;;8.30;99.90;;;;;;4911843;28;20499;-61
2023/11/04 01:25:34;;;;;;;3.70;2.40;;;8.20;99.90;;;;;;4917583;29;20507;-61
2023/11/04 01:28:01;;;;;;;3.70;2.90;;;8.20;99.90;;;;;;4919004;29;20577;-61
2023/11/04 01:30:31;;;;;;;5.23;2.70;;;8.20;99.90;;;;;;4921266;29;20554;-61
2023/11/04 01:33:00;;;;;;;5.77;2.70;;;8.10;99.90;;;;;;4916009;28;20496;-61
2023/11/04 01:35:29;;;;;;;5.40;2.50;;;8.10;99.90;;;;;;4919719;29;20502;-61
2023/11/04 01:37:56;;;;;;;6.07;2.80;;;8.10;99.90;;;;;;4921416;29;20472;-61
2023/11/04 01:40:24;;;;;;;2.40;2.20;;;8.20;99.90;;;;;;4918379;29;20530;-61
2023/11/04 01:42:52;;;;;;;3.70;2.50;;;8.10;99.90;;;;;;4919352;28;20524;-61
2023/11/04 01:45:21;;;;;;;4.77;2.80;;;8.10;99.90;;;;;;4919118;29;21001;-61
2023/11/04 01:47:51;;;;;;;5.73;2.77;;;8.10;99.90;;;;;;4918913;29;20525;-61
2023/11/04 01:50:20;;;;;;;4.87;3.07;;;8.10;99.90;;;;;;4915336;29;20479;-61
2023/11/04 01:52:49;;;;;;;4.90;2.93;;;8.10;99.90;;;;;;4916749;28;20523;-61
2023/11/04 01:55:17;;;;;;;3.80;2.80;;;8.10;99.90;;;;;;4919946;29;20566;-61
2023/11/04 01:57:46;;;;;;;6.70;3.07;;;8.10;99.90;;;;;;4920927;29;20565;-61
2023/11/04 02:00:15;;;;;;;4.73;2.97;;;8.10;99.90;;;;;;4917134;29;20480;-61
2023/11/04 02:02:45;;;;;;;4.90;3.10;;;8.10;99.90;;;;;;4920032;29;20711;-60
2023/11/04 02:05:15;;;;;;;3.87;3.10;;;8.10;99.90;;;;;;4919738;29;20584;-60
2023/11/04 02:07:43;;;;;;;3.70;3.27;;;8.10;99.90;;;;;;4920275;29;20885;-60
2023/11/04 02:10:11;;;;;;;6.50;3.00;;;8.10;99.90;;;;;;4920140;29;20559;-60
2023/11/04 02:12:39;;;;;;;5.13;3.50;;;8.10;99.90;;;;;;4920495;29;20583;-60
2023/11/04 02:15:08;;;;;;;5.57;3.13;;;8.10;99.90;;;;;;4918906;28;20494;-60
2023/11/04 02:17:36;;;;;;;3.83;2.63;;;8.10;99.90;;;;;;4917514;29;20515;-60
2023/11/04 02:20:05;;;;;;;6.73;2.90;;;8.10;99.90;;;;;;4921553;29;20492;-61
2023/11/04 02:22:34;;;;;;;5.53;3.20;;;8.00;99.90;;;;;;4918496;29;21041;-61
2023/11/04 02:25:02;;;;;;;3.33;3.03;;;8.00;99.90;;;;;;4919481;28;20934;-60
2023/11/04 02:27:31;;;;;;;6.80;2.90;;;8.00;99.90;;;;;;4917384;29;21052;-60
2023/11/04 02:29:59;;;;;;;3.60;2.60;;;8.00;99.90;;;;;;4920182;29;20810;-60
2023/11/04 02:32:27;;;;;;;5.90;3.03;;;8.00;99.90;;;;;;4916084;29;20574;-61
2023/11/04 02:34:55;;;;;;;5.10;2.93;;;7.90;99.90;;;;;;4918820;28;20512;-60
2023/11/04 02:37:23;;;;;;;4.23;3.30;;;7.90;99.90;;;;;;4918222;29;20519;-60
2023/11/04 02:39:52;;;;;;;4.93;3.33;;;7.90;99.90;;;;;;4917411;29;20477;-60
2023/11/04 02:42:20;;;;;;;4.00;3.13;;;7.90;99.90;;;;;;4921297;29;20504;-60
2023/11/04 02:44:48;;;;;;;5.03;4.20;;;7.90;99.90;;;;;;4917401;28;20580;-60
2023/11/04 02:47:16;;;;;;;7.73;5.10;;;7.80;99.90;;;;;;4916839;29;20483;-60
2023/11/04 02:49:44;;;;;;;3.40;2.90;;;7.80;99.90;;;;;;4916097;29;20471;-61
2023/11/04 02:52:12;;;;;;;3.43;2.17;;;7.80;99.90;;;;;;4918126;29;20575;-60
2023/11/04 02:54:41;;;;;;;4.77;2.57;;;7.80;99.90;;;;;;4915977;28;20489;-60
2023/11/04 02:57:10;;;;;;;4.10;3.17;;;7.80;99.90;;;;;;4919839;29;20478;-61
2023/11/04 02:59:39;;;;;;;3.90;2.70;;;7.80;99.90;;;;;;4919371;29;20499;-61
2023/11/04 03:02:07;;;;;;;4.63;2.80;;;7.70;99.90;;;;;;4919759;29;20864;-61
2023/11/04 03:04:38;;;;;;;4.47;2.83;;;7.70;99.90;;;;;;4917978;28;20488;-61
2023/11/04 03:07:06;;;;;;;4.30;2.60;;;7.70;99.90;;;;;;4915419;29;20507;-60
2023/11/04 03:09:34;;;;;;;4.00;2.63;;;7.80;99.90;;;;;;4918112;29;20567;-61
2023/11/04 03:12:02;;;;;;;4.17;2.53;;;7.80;99.90;;;;;;4918169;29;20697;-60
2023/11/04 03:14:31;;;;;;;3.70;2.70;;;7.80;99.90;;;;;;4919890;28;20483;-60
2023/11/04 03:16:59;;;;;;;3.43;2.87;;;7.70;99.90;;;;;;4920601;29;20491;-60
2023/11/04 03:19:27;;;;;;;3.87;2.93;;;7.70;99.90;;;;;;4918673;29;20563;-61
2023/11/04 03:21:56;;;;;;;3.70;2.80;;;7.70;99.90;;;;;;4918723;29;21075;-61
2023/11/04 03:24:24;;;;;;;3.10;2.80;;;7.70;99.90;;;;;;4916269;28;20480;-60
2023/11/04 03:26:52;;;;;;;5.53;2.87;;;7.70;99.90;;;;;;4916798;29;20496;-60
2023/11/04 03:29:21;;;;;;;4.50;2.60;;;7.70;99.90;;;;;;4920331;29;20500;-60
2023/11/04 03:31:50;;;;;;;4.60;2.70;;;7.60;99.90;;;;;;4918115;29;20535;-60
2023/11/04 03:34:18;;;;;;;3.50;3.20;;;7.60;99.90;;;;;;4913330;28;20606;-60
2023/11/04 03:36:47;;;;;;;3.10;2.80;;;7.60;99.90;;;;;;4911558;29;20952;-60
2023/11/04 03:39:15;;;;;;;2.93;2.50;;;7.60;99.90;;;;;;4916141;29;20472;-60
2023/11/04 03:41:44;;;;;;;3.80;2.50;;;7.60;99.90;;;;;;4917410;29;20477;-60
2023/11/04 03:44:12;;;;;;;3.20;2.50;;;7.60;99.90;;;;;;4915757;28;20583;-60
2023/11/04 03:46:40;;;;;;;7.20;3.10;;;7.60;99.90;;;;;;4914482;29;21034;-60
2023/11/04 03:49:09;;;;;;;3.70;2.70;;;7.60;99.90;;;;;;4919921;29;20862;-60
2023/11/04 03:51:37;;;;;;;4.63;2.77;;;7.60;99.90;;;;;;4916679;29;20503;-61
2023/11/04 03:54:05;;;;;;;5.40;2.53;;;7.60;99.90;;;;;;4918528;28;20484;-60
2023/11/04 03:56:33;;;;;;;2.70;2.40;;;7.60;99.90;;;;;;4915962;29;20499;-61
2023/11/04 03:59:02;;;;;;;5.00;3.30;;;7.50;99.90;;;;;;4918856;29;20503;-60
2023/11/04 04:01:29;;;;;;;3.73;2.60;;;7.50;99.90;;;;;;4916301;29;20559;-60
2023/11/04 04:03:57;;;;;;;3.20;2.47;;;7.50;99.90;;;;;;4914873;28;20583;-60
2023/11/04 04:06:27;;;;;;;4.07;2.70;;;7.50;99.90;;;;;;4916222;29;20856;-60
2023/11/04 04:08:55;;;;;;;3.83;2.57;;;7.50;99.90;;;;;;4918374;29;20472;-62
2023/11/04 04:11:23;;;;;;;5.80;3.50;;;7.50;99.90;;;;;;4917194;29;21101;-62
2023/11/04 04:13:51;;;;;;;5.77;2.63;;;7.50;99.90;;;;;;4919062;28;20567;-62
2023/11/04 04:16:22;;;;;;;2.90;2.20;;;7.50;99.90;;;;;;4919044;29;21019;-63
2023/11/04 04:18:50;;;;;;;5.40;2.77;;;7.40;99.90;;;;;;4919961;29;20473;-60
2023/11/04 04:21:18;;;;;;;2.70;2.30;;;7.40;99.90;;;;;;4917755;29;20475;-60
2023/11/04 04:23:48;;;;;;;3.10;2.40;;;7.40;99.90;;;;;;4918829;28;20511;-61
2023/11/04 04:26:20;;;;;;;5.13;2.60;;;7.40;99.90;;;;;;4915950;29;21016;-62
2023/11/04 04:28:48;;;;;;;3.17;2.87;;;7.30;99.90;;;;;;4919221;29;20500;-62
2023/11/04 04:31:16;;;;;;;4.10;2.80;;;7.30;99.90;;;;;;4918281;29;20882;-62
2023/11/04 04:33:45;;;;;;;4.23;2.17;;;7.30;99.90;;;;;;4919741;28;20570;-63
2023/11/04 04:36:13;;;;;;;3.77;2.43;;;7.20;99.90;;;;;;4916705;29;20472;-60
2023/11/04 04:38:41;;;;;;;3.20;2.70;;;7.20;99.90;;;;;;4919633;29;20507;-62
2023/11/04 04:41:11;;;;;;;4.10;2.60;;;7.20;99.90;;;;;;4917030;29;20476;-63
2023/11/04 04:43:39;;;;;;;4.53;3.00;;;7.20;99.90;;;;;;4917090;28;20500;-60
2023/11/04 04:46:06;;;;;;;3.80;2.60;;;7.20;99.90;;;;;;4918314;29;21063;-60
2023/11/04 04:48:35;;;;;;;4.80;2.67;;;7.20;99.90;;;;;;4908525;29;20471;-60
2023/11/04 04:51:03;;;;;;;5.67;2.20;;;7.20;99.90;;;;;;4918761;29;20504;-62
2023/11/04 04:53:32;;;;;;;3.70;2.47;;;7.20;99.90;;;;;;4923150;28;20523;-63
2023/11/04 04:56:01;;;;;;;2.97;2.30;;;7.20;99.90;;;;;;4921716;29;20574;-62
2023/11/04 04:58:31;;;;;;;5.67;2.50;;;7.10;99.90;;;;;;4918145;29;21045;-60
2023/11/04 05:01:00;;;;;;;3.53;2.60;;;7.10;99.90;;;;;;4918297;29;20476;-60
2023/11/04 05:03:28;;;;;;;4.80;2.73;;;7.00;99.90;;;;;;4919159;28;20973;-61
2023/11/04 05:05:56;;;;;;;2.67;2.47;;;7.00;99.90;;;;;;4924251;29;20582;-60
2023/11/04 05:08:24;;;;;;;4.37;2.30;;;6.90;99.90;;;;;;4921052;29;20562;-60
2023/11/04 05:10:52;;;;;;;2.90;2.20;;;6.90;99.90;;;;;;4918880;29;20892;-61
2023/11/04 05:13:20;;;;;;;2.83;1.97;;;6.90;99.90;;;;;;4921906;28;20521;-60
2023/11/04 05:15:50;;;;;;;3.90;2.60;;;6.90;99.90;;;;;;4921870;29;20531;-60
2023/11/04 05:18:18;;;;;;;3.53;2.17;;;6.90;99.90;;;;;;4920898;29;20481;-60
2023/11/04 05:20:47;;;;;;;2.80;2.00;;;6.90;99.90;;;;;;4922770;29;20479;-60
2023/11/04 05:23:16;;;;;;;2.83;2.60;;;6.90;99.90;;;;;;4921976;28;20492;-60
2023/11/04 05:25:44;;;;;;;4.10;2.20;;;6.80;99.90;;;;;;4920922;29;21016;-60
2023/11/04 05:28:12;;;;;;;2.63;2.13;;;6.80;99.90;;;;;;4920634;29;20592;-62
2023/11/04 05:30:40;;;;;;;4.90;2.27;;;6.80;99.90;;;;;;4919790;29;20925;-62
2023/11/04 05:33:09;;;;;;;2.53;1.80;;;6.90;99.90;;;;;;4921405;28;20483;-62
2023/11/04 05:35:37;;;;;;;2.70;2.03;;;6.80;99.90;;;;;;4921256;29;20485;-63
2023/11/04 05:38:05;;;;;;;3.90;2.50;;;6.90;99.90;;;;;;4921437;29;20863;-62
2023/11/04 05:40:33;;;;;;;2.50;2.30;;;6.90;99.90;;;;;;4920725;29;20581;-62
2023/11/04 05:43:01;;;;;;;4.13;2.30;;;6.90;99.90;;;;;;4917386;28;20541;-62
2023/11/04 05:45:30;;;;;;;4.80;2.47;;;6.90;99.90;;;;;;4916964;29;20532;-62
2023/11/04 05:47:58;;;;;;;2.57;1.97;;;6.90;99.90;;;;;;4921151;29;20502;-62
2023/11/04 05:50:27;;;;;;;4.97;2.50;;;6.80;99.90;;;;;;4918247;29;20484;-62
2023/11/04 05:52:55;;;;;;;3.00;2.00;;;6.80;99.90;;;;;;4918563;28;20507;-63
2023/11/04 05:55:24;;;;;;;4.33;2.37;;;6.80;99.90;;;;;;4923064;29;20469;-63
2023/11/04 05:57:52;;;;;;;2.30;2.07;;;6.80;99.90;;;;;;4913621;29;21715;-62
2023/11/04 06:00:20;;;;;;;1.93;1.80;;;6.70;99.90;;;;;;4920888;29;20483;-62
2023/11/04 06:02:48;;;;;;;2.60;1.83;;;6.70;99.90;;;;;;4919463;28;20619;-61
2023/11/04 06:05:16;;;;;;;3.13;1.97;;;6.60;99.90;;;;;;4920881;29;20472;-63
2023/11/04 06:07:46;;;;;;;3.13;1.93;;;6.60;99.90;;;;;;4921461;29;20497;-62
2023/11/04 06:10:14;;;;;;;1.90;1.80;;;6.60;99.90;;;;;;4919229;29;20586;-62
2023/11/04 06:12:42;;;;;;;4.03;1.80;;;6.50;99.90;;;;;;4921426;29;20524;-62
2023/11/04 06:15:10;;;;;;;4.93;2.30;;;6.50;99.90;;;;;;4920610;28;20851;-62
2023/11/04 06:17:39;;;;;;;2.90;2.00;;;6.50;99.90;;;;;;4919800;29;20503;-63
2023/11/04 06:20:08;;;;;;;2.27;1.80;;;6.50;99.90;;;;;;4916864;29;20575;-62
2023/11/04 06:22:37;;;;;;;3.13;1.87;;;6.50;99.90;;;;;;4922626;29;20940;-62
2023/11/04 06:25:07;;;;;;;2.67;1.90;;;6.50;99.90;;;;;;4920460;28;20508;-62
2023/11/04 06:27:36;;;;;;;2.60;2.20;;;6.50;99.90;;;;;;4923193;29;20523;-62
2023/11/04 06:30:06;;;;;;;4.90;1.73;;;6.50;99.90;;;;;;4920168;29;20472;-62
2023/11/04 06:32:34;;;;;;;5.20;1.90;;;6.50;99.90;;;;;;4917084;29;20516;-62
2023/11/04 06:35:03;;;;;;;3.20;1.70;;;6.50;99.90;;;;;;4918244;28;20480;-62
2023/11/04 06:37:31;;;;;;;2.00;1.80;;;6.50;99.90;;;;;;4918173;29;20476;-62
2023/11/04 06:39:59;;;;;;;2.00;1.80;;;6.50;99.90;;;;;;4915012;29;20480;-62
2023/11/04 06:42:28;;;;;;;2.80;2.10;;;6.50;99.90;;;;;;4917446;29;20721;-62
2023/11/04 06:44:56;;;;;;;2.33;1.60;;;6.50;99.90;;;;;;4919785;28;20489;-62
2023/11/04 06:47:24;;;;;;;2.40;1.70;;;6.50;99.90;;;;;;4919761;29;20587;-62
2023/11/04 06:49:52;;;;;;;3.00;1.93;;;6.60;99.90;;;;;;4918876;29;20487;-62
2023/11/04 06:52:21;;;;;;;3.93;1.80;;;6.60;99.90;;;;;;4918574;29;20495;-62
2023/11/04 06:54:49;;;;;;;2.63;2.00;;;6.60;99.90;;;;;;4916818;28;20869;-62
2023/11/04 06:57:17;;;;;;;3.20;2.37;;;6.60;99.90;;;;;;4912348;29;21404;-64
2023/11/04 06:59:46;;;;;;;3.60;1.90;;;6.60;99.90;;;;;;4916830;29;20484;-65
2023/11/04 07:02:15;;;;;;;3.90;1.90;;;6.60;99.90;;;;;;4910652;29;20613;-64
2023/11/04 07:04:43;;;;;;;4.77;1.70;;;6.60;99.90;;;;;;4910827;28;20910;-64
2023/11/04 07:07:11;;;;;;;1.63;1.53;;;6.70;99.90;;;;;;4904436;29;20701;-65
2023/11/04 07:09:38;;;;;;;3.10;2.20;;;6.70;99.90;;;;;;4911337;29;20483;-65
2023/11/04 07:12:07;;;;;;;2.53;1.60;;;6.70;99.90;;;;;;4912149;29;20487;-64
2023/11/04 07:14:35;;;;;;;2.97;1.87;;;6.70;99.90;;;;;;4911722;28;20587;-65
2023/11/04 07:17:05;;;;;;;3.40;1.70;;;6.70;99.90;;;;;;4914003;29;20575;-65
2023/11/04 07:19:33;;;;;;;3.87;1.80;;;6.80;99.90;;;;;;4916991;29;20934;-65
2023/11/04 07:22:01;;;;;;;2.07;1.83;;;6.80;99.90;;;;;;4914510;29;20485;-65
2023/11/04 07:24:29;;;;;;;3.00;2.00;;;6.80;99.90;;;;;;4907484;28;20495;-62
2023/11/04 07:26:57;;;;;;;3.43;1.90;;;6.90;99.90;;;;;;4911364;29;20475;-62
2023/11/04 07:29:26;;;;;;;2.30;1.83;;;6.90;99.90;;;;;;4918244;29;20495;-62
2023/11/04 07:31:54;;;;;;;3.57;1.80;;;6.90;99.90;;;;;;4916084;29;20559;-62
2023/11/04 07:34:30;;;;;;;2.20;1.53;;;7.00;99.90;;;;;;4906580;28;20526;-62
2023/11/04 07:36:58;;;;;;;4.57;2.13;;;7.00;99.90;;;;;;4913935;29;20876;-62
2023/11/04 07:39:27;;;;;;;3.67;1.63;;;7.10;99.90;;;;;;4915825;29;20492;-62
2023/11/04 07:41:56;;;;;;;2.70;1.87;;;7.10;99.90;;;;;;4916844;29;20874;-62
2023/11/04 07:44:24;;;;;;;1.80;1.70;;;7.20;99.90;;;;;;4909135;28;20493;-62
2023/11/04 07:46:52;;;;;;;2.60;1.77;;;7.20;99.90;;;;;;4917670;29;21257;-62
2023/11/04 07:49:20;;;;;;;3.27;1.60;;;7.20;99.90;;;;;;4912179;29;20575;-62
2023/11/04 07:51:49;;;;;;;2.10;1.80;;;7.30;99.90;;;;;;4913296;29;20568;-62
2023/11/04 07:54:17;;;;;;;3.57;1.50;;;7.40;99.90;;;;;;4911415;28;20528;-62
2023/11/04 07:56:45;;;;;;;1.90;1.50;;;7.40;99.90;;;;;;4918444;28;20488;-62
2023/11/04 07:59:13;;;;;;;1.70;1.53;;;7.40;99.90;;;;;;4916112;29;20606;-62
2023/11/04 08:01:42;;;;;;;3.70;1.53;;;7.40;99.90;;;;;;4916793;29;20475;-62
2023/11/04 08:04:10;;;;;;;1.53;1.43;;;7.40;99.90;;;;;;4916408;28;21021;-62
2023/11/04 08:06:38;;;;;;;2.40;1.43;;;7.40;99.90;;;;;;4920087;29;21033;-62
2023/11/04 08:09:08;;;;;;;2.60;1.17;;;7.50;99.90;;;;;;4916847;29;20531;-62
2023/11/04 08:11:36;;;;;;;1.93;1.40;;;7.50;99.90;;;;;;4914774;29;20511;-62
2023/11/04 08:14:04;;;;;;;1.70;1.60;;;7.50;99.90;;;;;;4915671;28;20626;-62
2023/11/04 08:16:32;;;;;;;2.23;1.30;;;7.60;99.90;;;;;;4916345;29;20492;-62
2023/11/04 08:19:00;;;;;;;3.20;1.97;;;7.60;99.90;;;;;;4905939;29;20567;-62
2023/11/04 08:21:29;;;;;;;3.57;1.87;;;7.70;99.90;;;;;;4895811;29;20500;-62
2023/11/04 08:23:58;;;;;;;2.23;1.40;;;7.70;99.90;;;;;;4905469;28;20684;-62
2023/11/04 08:26:27;;;;;;;4.87;1.97;;;7.80;99.90;;;;;;4911662;29;20578;-62
2023/11/04 08:28:56;;;;;;;2.03;1.43;;;7.80;99.90;;;;;;4910491;29;20920;-62
2023/11/04 08:31:24;;;;;;;3.13;2.33;;;7.90;99.90;;;;;;4910902;29;20917;-62
2023/11/04 08:33:52;;;;;;;2.00;1.27;;;7.90;99.90;;;;;;4906590;28;20513;-62
2023/11/04 08:36:20;;;;;;;1.60;1.50;;;8.00;99.90;;;;;;4911694;29;20476;-62
2023/11/04 08:38:48;;;;;;;1.87;1.50;;;8.00;99.90;;;;;;4908777;29;20591;-62
2023/11/04 08:41:16;;;;;;;1.47;1.37;;;8.10;99.90;;;;;;4911461;29;20570;-62
2023/11/04 08:43:45;;;;;;;2.80;1.50;;;8.20;99.90;;;;;;4908425;28;20492;-62
2023/11/04 08:46:18;;;;;;;2.97;1.20;;;8.30;99.90;;;;;;4905032;29;20476;-62
2023/11/04 08:48:46;;;;;;;2.63;1.13;;;8.40;99.90;;;;;;4912523;29;20494;-62
2023/11/04 08:51:14;;;;;;;3.73;1.30;;;8.50;99.90;;;;;;4913333;29;20472;-62
2023/11/04 08:53:42;;;;;;;3.03;1.60;;;8.50;99.90;;;;;;4909250;28;20551;-62
2023/11/04 08:56:10;;;;;;;1.50;1.40;;;8.60;99.90;;;;;;4911734;29;20986;-62
2023/11/04 08:58:38;;;;;;;2.00;1.40;;;8.60;99.90;;;;;;4914728;29;20507;-62
2023/11/04 09:01:08;;;;;;;3.03;1.30;;;8.60;99.90;;;;;;4916426;29;20479;-60
2023/11/04 09:03:37;;;;;;;2.20;1.57;;;8.60;99.90;;;;;;4900444;28;20510;-60
2023/11/04 09:06:17;;;;;;;2.43;1.57;;;8.70;99.90;;;;;;4913516;29;20881;-61
2023/11/04 09:08:46;;;;;;;2.83;1.50;;;8.70;99.90;;;;;;4912521;29;20476;-61
2023/11/04 09:11:14;;;;;;;3.53;1.60;;;8.70;99.90;;;;;;4907896;29;20478;-60
2023/11/04 09:13:42;;;;;;;2.43;1.30;;;8.80;99.90;;;;;;4903967;28;20595;-60
2023/11/04 09:16:11;;;;;;;2.00;1.40;;;8.80;99.90;;;;;;4903319;29;20506;-60
2023/11/04 09:18:39;;;;;;;1.83;1.67;;;8.90;99.90;;;;;;4904766;29;20859;-60
2023/11/04 09:21:07;;;;;;;1.90;1.50;;;8.90;99.90;;;;;;4909343;29;20510;-61
2023/11/04 09:23:35;;;;;;;1.33;1.23;;;9.00;99.90;;;;;;4913881;28;20522;-61
2023/11/04 09:26:03;;;;;;;2.37;1.57;;;9.00;99.90;;;;;;4904430;29;20554;-60
2023/11/04 09:28:32;;;;;;;2.83;1.60;;;9.10;99.90;;;;;;4913039;29;20503;-62
2023/11/04 09:31:00;;;;;;;2.73;1.70;;;9.10;99.90;;;;;;4909914;29;20511;-63
2023/11/04 09:33:31;;;;;;;3.43;1.33;;;9.20;99.90;;;;;;4909771;28;20519;-62
2023/11/04 09:35:59;;;;;;;1.80;1.30;;;9.30;99.90;;;;;;4908626;29;20552;-62
2023/11/04 09:38:27;;;;;;;2.40;1.57;;;9.30;99.90;;;;;;4910769;29;20925;-62
2023/11/04 09:40:56;;;;;;;1.50;1.40;;;9.30;99.90;;;;;;4910482;29;20469;-62
2023/11/04 09:43:23;;;;;;;2.20;1.60;;;9.30;99.90;;;;;;4913171;28;20607;-62
2023/11/04 09:45:52;;;;;;;3.47;1.50;;;9.30;99.90;;;;;;4906194;29;20481;-62
2023/11/04 09:48:20;;;;;;;2.77;1.40;;;9.30;99.90;;;;;;4906820;29;21094;-63
2023/11/04 09:50:59;;;;;;;2.17;2.03;;;9.30;99.90;;;;;;4915995;29;20879;-62
2023/11/04 09:53:28;;;;;;;2.43;1.20;;;9.30;99.90;;;;;;4914623;28;20496;-62
2023/11/04 09:55:56;;;;;;;1.80;1.30;;;9.40;99.90;;;;;;4908344;29;20877;-62
2023/11/04 09:58:25;;;;;;;3.17;1.50;;;9.40;99.90;;;;;;4915824;28;20575;-62
2023/11/04 10:00:53;;;;;;;1.47;1.33;;;9.40;99.90;;;;;;4916377;29;20502;-62
2023/11/04 10:03:21;;;;;;;4.50;1.40;;;9.50;99.90;;;;;;4912770;28;20495;-63
2023/11/04 10:05:51;;;;;;;1.83;1.30;;;9.50;99.90;;;;;;4916729;29;20519;-63
2023/11/04 10:08:19;;;;;;;1.83;1.60;;;9.70;99.90;;;;;;4915477;29;20507;-62
2023/11/04 10:10:47;;;;;;;2.60;1.40;;;9.70;99.90;;;;;;4913854;29;20531;-63
2023/11/04 10:13:16;;;;;;;1.37;1.20;;;9.80;99.90;;;;;;4916056;28;21001;-63
2023/11/04 10:15:44;;;;;;;1.33;1.17;;;9.80;99.90;;;;;;4909038;29;20503;-63
2023/11/04 10:18:12;;;;;;;2.33;1.70;;;9.80;99.90;;;;;;4910811;29;20488;-64
2023/11/04 10:20:40;;;;;;;1.60;1.50;;;9.90;99.90;;;;;;4918088;29;20515;-64
2023/11/04 10:23:10;;;;;;;1.30;1.20;;;9.90;99.90;;;;;;4914988;28;20515;-64
2023/11/04 10:25:38;;;;;;;1.80;1.20;;;10.00;99.90;;;;;;4914161;29;20599;-61
2023/11/04 10:28:06;;;;;;;1.40;1.20;;;10.00;99.90;;;;;;4913945;29;20472;-66
2023/11/04 10:30:37;;;;;;;1.50;1.40;;;10.10;99.90;;;;;;4915693;29;20476;-67
2023/11/04 10:33:09;;;;;;;1.67;1.37;;;10.10;99.90;;;;;;4914248;28;20495;-68
2023/11/04 10:35:42;;;;;;;1.70;1.17;;;10.20;99.90;;;;;;4916809;29;20467;-66
2023/11/04 10:38:16;;;;;;;1.50;1.40;;;10.20;99.90;;;;;;4915992;29;20483;-66
2023/11/04 10:40:45;;;;;;;1.40;1.30;;;10.30;99.90;;;;;;4905187;29;20601;-64
2023/11/04 10:43:16;;;;;;;1.73;1.50;;;10.40;99.90;;;;;;4910260;28;20595;-63
2023/11/04 10:45:51;;;;;;;1.47;1.30;;;10.60;99.90;;;;;;4904592;29;20511;-64
2023/11/04 10:48:24;;;;;;;1.60;1.20;;;10.70;99.90;;;;;;4911773;29;21308;-64
2023/11/04 10:51:04;;;;;;;2.53;1.20;;;10.80;99.90;;;;;;4912662;29;20998;-64
2023/11/04 10:53:42;;;;;;;4.23;1.80;;;10.90;99.90;;;;;;4911016;28;20771;-64
2023/11/04 10:56:19;;;;;;;3.63;1.30;;;11.00;99.90;;;;;;4910552;29;20594;-65
2023/11/04 10:59:01;;;;;;;1.30;1.20;;;11.10;99.90;;;;;;4909602;29;21003;-65
2023/11/04 11:01:31;;;;;;;3.70;1.60;;;11.30;99.90;;;;;;4907890;29;20591;-65
2023/11/04 11:04:01;;;;;;;1.70;1.60;;;11.40;99.90;;;;;;4911631;28;20511;-64
2023/11/04 11:06:30;;;;;;;1.20;1.10;;;11.50;99.90;;;;;;4910188;29;20559;-65
2023/11/04 11:09:00;;;;;;;2.77;1.23;;;11.60;99.90;;;;;;4905427;29;20560;-65
2023/11/04 11:11:34;;;;;;;1.30;1.20;;;11.60;99.90;;;;;;4911719;29;20562;-65
2023/11/04 11:14:03;;;;;;;3.70;1.53;;;11.70;99.90;;;;;;4916935;28;20558;-65
2023/11/04 11:16:32;;;;;;;2.50;1.30;;;11.80;99.90;;;;;;4913210;29;20674;-65
2023/11/04 11:19:09;;;;;;;1.40;1.30;;;12.00;99.90;;;;;;4910299;29;20504;-64
2023/11/04 11:21:50;;;;;;;1.80;1.10;;;12.20;99.90;;;;;;4910470;29;20605;-66
2023/11/04 11:24:21;;;;;;;1.43;1.00;;;12.60;99.90;;;;;;4904544;28;20500;-65
2023/11/04 11:26:50;;;;;;;1.53;1.37;;;12.70;99.90;;;;;;4907115;29;20571;-65
2023/11/04 11:29:19;;;;;;;1.30;1.20;;;12.90;99.90;;;;;;4905902;29;21126;-64
2023/11/04 11:31:48;;;;;;;1.70;1.33;;;13.00;99.90;;;;;;4912270;29;20543;-62
2023/11/04 11:34:16;;;;;;;1.40;1.03;;;12.80;99.90;;;;;;4911527;28;20575;-64
2023/11/04 11:36:45;;;;;;;1.30;1.20;;;12.70;99.90;;;;;;4896143;29;20554;-64
2023/11/04 11:39:14;;;;;;;2.60;1.30;;;12.60;99.90;;;;;;4906512;29;20475;-67
2023/11/04 11:41:44;;;;;;;1.23;1.17;;;12.80;99.90;;;;;;4911248;29;20583;-65
2023/11/04 11:44:14;;;;;;;1.63;1.20;;;13.00;99.90;;;;;;4908755;28;20500;-65
2023/11/04 11:46:43;;;;;;;1.20;1.00;;;12.80;99.90;;;;;;4904414;29;20463;-65
2023/11/04 11:49:11;;;;;;;1.03;0.93;;;12.60;99.90;;;;;;4908402;29;20491;-60
2023/11/04 11:51:40;;;;;;;1.47;1.23;;;12.40;99.90;;;;;;4910971;29;20991;-61
2023/11/04 11:54:10;;;;;;;2.30;1.30;;;12.40;99.90;;;;;;4911353;28;20496;-61
2023/11/04 11:56:38;;;;;;;1.33;1.13;;;12.50;99.90;;;;;;4913244;29;20519;-61
2023/11/04 11:59:09;;;;;;;2.47;1.20;;;13.20;99.90;;;;;;4912998;29;20487;-60
2023/11/04 12:01:38;;;;;;;1.83;1.27;;;14.00;99.90;;;;;;4910872;29;20906;-59
2023/11/04 12:04:06;;;;;;;1.40;1.20;;;14.00;99.90;;;;;;4904927;28;20496;-59
2023/11/04 12:06:36;;;;;;;1.63;1.10;;;13.70;99.90;;;;;;4905261;29;20471;-60
2023/11/04 12:09:06;;;;;;;1.53;1.10;;;13.40;99.90;;;;;;4909528;29;20476;-59
2023/11/04 12:11:35;;;;;;;1.07;0.93;;;13.10;99.90;;;;;;4904635;29;20487;-62
2023/11/04 12:14:04;;;;;;;1.33;1.10;;;12.80;99.90;;;;;;4902494;28;20495;-62
2023/11/04 12:16:35;;;;;;;3.37;1.30;;;12.60;99.90;;;;;;4908485;29;20476;-61
2023/11/04 12:19:03;;;;;;;1.70;1.20;;;12.50;99.90;;;;;;4910657;29;20508;-61
2023/11/04 12:21:31;;;;;;;4.47;1.40;;;12.50;99.90;;;;;;4907342;29;20508;-62
2023/11/04 12:24:00;;;;;;;1.73;1.50;;;12.40;99.90;;;;;;4902278;28;20550;-62
2023/11/04 12:26:33;;;;;;;1.20;1.10;;;12.40;99.90;;;;;;4906970;29;21683;-62
2023/11/04 12:29:01;;;;;;;2.50;2.30;;;12.40;99.90;;;;;;4910019;29;20965;-62
2023/11/04 12:31:29;;;;;;;2.00;1.10;;;12.50;99.90;;;;;;4905395;29;20511;-62
2023/11/04 12:33:58;;;;;;;1.30;1.20;;;12.60;99.90;;;;;;4911284;28;21044;-61
2023/11/04 12:36:26;;;;;;;1.93;1.20;;;13.00;99.90;;;;;;4909816;29;20480;-59
2023/11/04 12:38:55;;;;;;;1.70;1.00;;;15.00;99.90;;;;;;4907883;29;20996;-59
2023/11/04 12:41:25;;;;;;;1.60;0.93;;;15.90;99.90;;;;;;4901814;29;21044;-60
2023/11/04 12:43:54;;;;;;;1.60;1.50;;;15.80;99.90;;;;;;4902952;28;20959;-58
2023/11/04 12:46:22;;;;;;;1.20;1.10;;;15.20;99.90;;;;;;4904293;29;20489;-59
2023/11/04 12:48:50;;;;;;;1.27;1.00;;;14.70;99.90;;;;;;4905424;29;20814;-59
2023/11/04 12:51:21;;;;;;;2.80;1.10;;;14.20;99.90;;;;;;4904098;29;20962;-59
2023/11/04 12:53:49;;;;;;;1.43;1.10;;;13.90;99.90;;;;;;4911715;28;20504;-61
2023/11/04 12:56:18;;;;;;;1.90;1.30;;;13.60;99.90;;;;;;4906488;29;20575;-61
2023/11/04 12:58:46;;;;;;;1.30;1.20;;;13.30;99.90;;;;;;4913737;29;20543;-61
2023/11/04 13:01:14;;;;;;;3.20;1.33;;;13.10;99.90;;;;;;4910049;29;20690;-61
2023/11/04 13:03:42;;;;;;;1.70;1.20;;;12.90;99.90;;;;;;4909575;28;20507;-63